| time (UTC) | temp C | wind direction | speed KPH | gust KPH | rain 1hr cm | rain 24hr cm | rain mn cm | humidity % | barometer mb |
| 20260507192404 | 19 | 9 | 6.4 | 12.9 | 0.00 | 0.00 | 0.00 | 43 | 1010.3 |
| 20260507191901 | 19 | 60 | 8.0 | 11.3 | 0.00 | 0.00 | 0.00 | 39 | 1010.2 |
| 20260507191357 | 18 | 119 | 1.6 | 6.4 | 0.00 | 0.00 | 0.00 | 45 | 1010.5 |
| 20260507190854 | 18 | 78 | 3.2 | 9.7 | 0.00 | 0.00 | 0.00 | 40 | 1010.6 |
| 20260507190352 | 17 | 84 | 0.0 | 4.8 | 0.00 | 0.00 | 0.00 | 43 | 1010.7 |
| 20260507185851 | 17 | 6 | 1.6 | 4.8 | 0.00 | 0.00 | 0.00 | 42 | 1010.7 |
| 20260507185348 | 18 | 31 | 4.8 | 9.7 | 0.00 | 0.00 | 0.00 | 45 | 1010.9 |
| 20260507184844 | 17 | 65 | 11.3 | 14.5 | 0.00 | 0.00 | 0.00 | 43 | 1010.7 |
| 20260507184342 | 18 | 30 | 4.8 | 11.3 | 0.00 | 0.00 | 0.00 | 46 | 1010.8 |
| 20260507183839 | 18 | 161 | 1.6 | 3.2 | 0.00 | 0.00 | 0.00 | 39 | 1010.7 |
| 20260507183336 | 18 | 350 | 4.8 | 6.4 | 0.00 | 0.00 | 0.00 | 38 | 1011.1 |
| 20260507182834 | 18 | 42 | 6.4 | 14.5 | 0.00 | 0.00 | 0.00 | 38 | 1010.7 |
| 20260507182329 | 19 | 327 | 4.8 | 4.8 | 0.00 | 0.00 | 0.00 | 38 | 1011.0 |
| 20260507181826 | 18 | 314 | 0.0 | 1.6 | 0.00 | 0.00 | 0.00 | 44 | 1011.0 |
| 20260507181321 | 18 | 34 | 4.8 | 12.9 | 0.00 | 0.00 | 0.00 | 42 | 1011.0 |
| 20260507180819 | 17 | 345 | 1.6 | 9.7 | 0.00 | 0.00 | 0.00 | 43 | 1011.1 |
| 20260507180316 | 17 | 336 | 8.0 | 12.9 | 0.00 | 0.00 | 0.00 | 43 | 1011.2 |
| 20260507175811 | 17 | 49 | 14.5 | 16.1 | 0.00 | 0.00 | 0.00 | 43 | 1011.4 |
| 20260507175308 | 17 | 76 | 4.8 | 9.7 | 0.00 | 0.00 | 0.00 | 44 | 1011.5 |
| 20260507174805 | 17 | 71 | 8.0 | 16.1 | 0.00 | 0.00 | 0.00 | 48 | 1011.5 |
| 20260507174303 | 17 | 49 | 11.3 | 14.5 | 0.00 | 0.00 | 0.00 | 41 | 1011.7 |
| 20260507173801 | 17 | 93 | 1.6 | 4.8 | 0.00 | 0.00 | 0.00 | 45 | 1011.8 |
| 20260507173258 | 17 | 16 | 8.0 | 14.5 | 0.00 | 0.00 | 0.00 | 41 | 1012.0 |
| 20260507172754 | 17 | 47 | 8.0 | 11.3 | 0.00 | 0.00 | 0.00 | 45 | 1012.0 |
| 20260507172251 | 17 | 52 | 11.3 | 14.5 | 0.00 | 0.00 | 0.00 | 43 | 1012.1 |
| 20260507171746 | 17 | 288 | 4.8 | 9.7 | 0.00 | 0.00 | 0.00 | 41 | 1012.2 |
| 20260507171243 | 17 | 18 | 9.7 | 12.9 | 0.00 | 0.00 | 0.00 | 41 | 1012.2 |
| 20260507170740 | 16 | 87 | 1.6 | 9.7 | 0.00 | 0.00 | 0.00 | 42 | 1012.4 |
| 20260507170237 | 16 | 217 | 3.2 | 11.3 | 0.00 | 0.00 | 0.00 | 43 | 1012.3 |
| 20260507165732 | 16 | 39 | 12.9 | 16.1 | 0.00 | 0.00 | 0.00 | 42 | 1012.3 |
| 20260507165229 | 17 | 47 | 11.3 | 17.7 | 0.00 | 0.00 | 0.00 | 40 | 1012.5 |
| 20260507164725 | 17 | 40 | 4.8 | 6.4 | 0.00 | 0.00 | 0.00 | 45 | 1012.8 |
| 20260507164223 | 17 | 303 | 8.0 | 9.7 | 0.00 | 0.00 | 0.00 | 40 | 1012.9 |
| 20260507163719 | 17 | 348 | 11.3 | 14.5 | 0.00 | 0.00 | 0.00 | 45 | 1012.6 |
| 20260507163218 | 16 | 276 | 3.2 | 4.8 | 0.00 | 0.00 | 0.00 | 43 | 1012.7 |
| 20260507162713 | 16 | 329 | 4.8 | 6.4 | 0.00 | 0.00 | 0.00 | 46 | 1013.0 |
| 20260507162209 | 16 | 341 | 11.3 | 14.5 | 0.00 | 0.00 | 0.00 | 40 | 1013.0 |
| 20260507161706 | 16 | 197 | 0.0 | 4.8 | 0.00 | 0.00 | 0.00 | 47 | 1013.2 |
| 20260507161202 | 15 | 26 | 6.4 | 14.5 | 0.00 | 0.00 | 0.00 | 46 | 1013.3 |
| 20260507160658 | 16 | 12 | 8.0 | 16.1 | 0.00 | 0.00 | 0.00 | 47 | 1013.2 |
| 20260507160155 | 16 | 339 | 4.8 | 20.9 | 0.00 | 0.00 | 0.00 | 47 | 1013.5 |
| 20260507155651 | 16 | 27 | 6.4 | 9.7 | 0.00 | 0.00 | 0.00 | 46 | 1013.4 |
| 20260507155148 | 15 | 4 | 3.2 | 4.8 | 0.00 | 0.00 | 0.00 | 45 | 1013.4 |
| 20260507154644 | 15 | 352 | 6.4 | 9.7 | 0.00 | 0.00 | 0.00 | 47 | 1013.4 |
| 20260507154142 | 15 | 32 | 9.7 | 12.9 | 0.00 | 0.00 | 0.00 | 47 | 1013.4 |
| 20260507153638 | 16 | 336 | 3.2 | 9.7 | 0.00 | 0.00 | 0.00 | 46 | 1013.6 |
| 20260507153135 | 15 | 323 | 3.2 | 14.5 | 0.00 | 0.00 | 0.00 | 46 | 1013.4 |
| 20260507152631 | 15 | 355 | 9.7 | 17.7 | 0.00 | 0.00 | 0.00 | 47 | 1013.6 |
| 20260507152127 | 15 | 30 | 9.7 | 20.9 | 0.00 | 0.00 | 0.00 | 46 | 1013.4 |
| 20260507151623 | 15 | 316 | 6.4 | 11.3 | 0.00 | 0.00 | 0.00 | 48 | 1013.3 |
| 20260507151120 | 15 | 7 | 4.8 | 17.7 | 0.00 | 0.00 | 0.00 | 49 | 1013.3 |
| 20260507150617 | 15 | 33 | 11.3 | 14.5 | 0.00 | 0.00 | 0.00 | 49 | 1013.5 |
| 20260507150114 | 14 | 48 | 14.5 | 17.7 | 0.00 | 0.00 | 0.00 | 50 | 1013.8 |
| 20260507145609 | 15 | 314 | 6.4 | 12.9 | 0.00 | 0.00 | 0.00 | 47 | 1013.6 |
| 20260507145108 | 15 | 341 | 9.7 | 12.9 | 0.00 | 0.00 | 0.00 | 48 | 1013.9 |
| 20260507144603 | 14 | 347 | 12.9 | 14.5 | 0.00 | 0.00 | 0.00 | 52 | 1014.0 |
| 20260507144102 | 14 | 68 | 8.0 | 16.1 | 0.00 | 0.00 | 0.00 | 56 | 1014.2 |
| 20260507143558 | 15 | 26 | 6.4 | 9.7 | 0.00 | 0.00 | 0.00 | 53 | 1014.3 |
| 20260507143055 | 14 | 351 | 8.0 | 11.3 | 0.00 | 0.00 | 0.00 | 51 | 1014.3 |
| 20260507142555 | 13 | 337 | 6.4 | 9.7 | 0.00 | 0.00 | 0.00 | 53 | 1014.4 |
| 20260507142053 | 13 | 34 | 4.8 | 12.9 | 0.00 | 0.00 | 0.00 | 55 | 1014.4 |
| 20260507141549 | 13 | 17 | 9.7 | 12.9 | 0.00 | 0.00 | 0.00 | 54 | 1014.5 |
| 20260507141046 | 12 | 353 | 6.4 | 11.3 | 0.00 | 0.00 | 0.00 | 56 | 1014.6 |
| 20260507140542 | 12 | 33 | 6.4 | 11.3 | 0.00 | 0.00 | 0.00 | 55 | 1014.9 |
| 20260507140040 | 12 | 325 | 6.4 | 9.7 | 0.00 | 0.00 | 0.00 | 54 | 1015.1 |
| 20260507135537 | 12 | 337 | 6.4 | 9.7 | 0.00 | 0.00 | 0.00 | 52 | 1015.2 |
| 20260507135034 | 12 | 22 | 8.0 | 14.5 | 0.00 | 0.00 | 0.00 | 56 | 1014.9 |
| 20260507134530 | 12 | 327 | 9.7 | 12.9 | 0.00 | 0.00 | 0.00 | 53 | 1015.0 |
| 20260507134026 | 12 | 13 | 6.4 | 9.7 | 0.00 | 0.00 | 0.00 | 53 | 1015.0 |
| 20260507133522 | 12 | 13 | 8.0 | 14.5 | 0.00 | 0.00 | 0.00 | 53 | 1015.2 |
| 20260507133021 | 12 | 315 | 3.2 | 6.4 | 0.00 | 0.00 | 0.00 | 57 | 1015.1 |
| 20260507132517 | 12 | 330 | 3.2 | 4.8 | 0.00 | 0.00 | 0.00 | 60 | 1015.3 |
| 20260507132013 | 12 | 1 | 4.8 | 6.4 | 0.00 | 0.00 | 0.00 | 59 | 1015.3 |
| 20260507131510 | 12 | 330 | 3.2 | 6.4 | 0.00 | 0.00 | 0.00 | 59 | 1015.4 |
| 20260507131008 | 12 | 17 | 6.4 | 9.7 | 0.00 | 0.00 | 0.00 | 59 | 1015.3 |
| 20260507130504 | 12 | 320 | 8.0 | 11.3 | 0.00 | 0.00 | 0.00 | 58 | 1015.3 |
| 20260507130003 | 12 | 332 | 4.8 | 9.7 | 0.00 | 0.00 | 0.00 | 60 | 1015.3 |
| 20260507125501 | 12 | 319 | 6.4 | 9.7 | 0.00 | 0.00 | 0.00 | 62 | 1015.3 |
| 20260507124958 | 11 | 329 | 3.2 | 9.7 | 0.00 | 0.00 | 0.00 | 61 | 1015.3 |
| 20260507124454 | 11 | 329 | 6.4 | 6.4 | 0.00 | 0.00 | 0.00 | 62 | 1015.3 |
| 20260507123952 | 11 | 345 | 1.6 | 4.8 | 0.00 | 0.00 | 0.00 | 64 | 1015.3 |
| 20260507123449 | 11 | 326 | 1.6 | 3.2 | 0.00 | 0.00 | 0.00 | 63 | 1015.3 |
| 20260507122946 | 11 | 324 | 3.2 | 4.8 | 0.00 | 0.00 | 0.00 | 65 | 1015.2 |
| 20260507122441 | 11 | 5 | 3.2 | 4.8 | 0.00 | 0.00 | 0.00 | 64 | 1015.2 |
| 20260507121937 | 11 | 325 | 1.6 | 4.8 | 0.00 | 0.00 | 0.00 | 65 | 1015.2 |
| 20260507121433 | 11 | 321 | 3.2 | 4.8 | 0.00 | 0.00 | 0.00 | 65 | 1015.2 |
| 20260507120930 | 11 | 16 | 3.2 | 4.8 | 0.00 | 0.00 | 0.00 | 67 | 1015.2 |
| 20260507120426 | 11 | 308 | 1.6 | 3.2 | 0.00 | 0.00 | 0.00 | 70 | 1015.3 |
| 20260507115922 | 11 | 355 | 1.6 | 3.2 | 0.00 | 0.00 | 0.00 | 70 | 1015.1 |
| 20260507115419 | 11 | 328 | 1.6 | 4.8 | 0.00 | 0.00 | 0.00 | 70 | 1015.2 |
| 20260507114914 | 11 | 317 | 1.6 | 4.8 | 0.00 | 0.00 | 0.00 | 71 | 1015.2 |
| 20260507114411 | 11 | 323 | 3.2 | 3.2 | 0.00 | 0.00 | 0.00 | 70 | 1015.0 |
| 20260507113908 | 11 | 332 | 3.2 | 3.2 | 0.00 | 0.00 | 0.00 | 72 | 1015.0 |
| 20260507113406 | 11 | 350 | 1.6 | 3.2 | 0.00 | 0.00 | 0.00 | 71 | 1014.9 |
| 20260507112903 | 11 | 345 | 1.6 | 3.2 | 0.00 | 0.00 | 0.00 | 71 | 1015.0 |
| 20260507112400 | 11 | 39 | 1.6 | 3.2 | 0.00 | 0.00 | 0.00 | 71 | 1014.7 |
| 20260507111858 | 10 | 3 | 1.6 | 3.2 | 0.00 | 0.00 | 0.00 | 71 | 1015.0 |
| 20260507111354 | 10 | 15 | 1.6 | 3.2 | 0.00 | 0.00 | 0.00 | 71 | 1015.0 |
| 20260507110850 | 10 | 355 | 1.6 | 1.6 | 0.00 | 0.00 | 0.00 | 71 | 1014.9 |
| 20260507110346 | 10 | 0 | 1.6 | 1.6 | 0.00 | 0.00 | 0.00 | 71 | 1015.0 |
| 20260507105844 | 10 | 11 | 1.6 | 3.2 | 0.00 | 0.00 | 0.00 | 73 | 1015.1 |
| 20260507105340 | 10 | 20 | 1.6 | 1.6 | 0.00 | 0.00 | 0.00 | 71 | 1015.1 |
| 20260507104837 | 10 | 30 | 0.0 | 3.2 | 0.00 | 0.00 | 0.00 | 72 | 1014.7 |
| 20260507104334 | 10 | 16 | 1.6 | 1.6 | 0.00 | 0.00 | 0.00 | 73 | 1014.6 |
| 20260507103830 | 10 | 2 | 0.0 | 0.0 | 0.00 | 0.00 | 0.00 | 75 | 1014.7 |
| 20260507103326 | 10 | 8 | 0.0 | 0.0 | 0.00 | 0.00 | 0.00 | 75 | 1014.5 |
| 20260507102823 | 10 | 3 | 0.0 | 1.6 | 0.00 | 0.00 | 0.00 | 73 | 1014.3 |
| 20260507102320 | 10 | 5 | 0.0 | 1.6 | 0.00 | 0.00 | 0.00 | 74 | 1014.4 |
| 20260507101816 | 10 | 18 | 3.2 | 3.2 | 0.00 | 0.00 | 0.00 | 73 | 1014.3 |
| 20260507101316 | 10 | 26 | 0.0 | 3.2 | 0.00 | 0.00 | 0.00 | 73 | 1014.4 |
| 20260507100813 | 10 | 23 | 0.0 | 0.0 | 0.00 | 0.00 | 0.00 | 74 | 1014.1 |
| 20260507100311 | 10 | 23 | 1.6 | 1.6 | 0.00 | 0.00 | 0.00 | 72 | 1014.5 |
| 20260507095809 | 10 | 33 | 1.6 | 1.6 | 0.00 | 0.00 | 0.00 | 72 | 1014.1 |
| 20260507095306 | 10 | 18 | 3.2 | 3.2 | 0.00 | 0.00 | 0.00 | 72 | 1014.0 |
| 20260507094802 | 11 | 24 | 1.6 | 3.2 | 0.00 | 0.00 | 0.00 | 72 | 1014.1 |
| 20260507094259 | 11 | 40 | 3.2 | 4.8 | 0.00 | 0.00 | 0.00 | 74 | 1013.9 |
| 20260507093756 | 11 | 40 | 3.2 | 4.8 | 0.00 | 0.00 | 0.00 | 74 | 1013.9 |
| 20260507093254 | 11 | 36 | 4.8 | 6.4 | 0.00 | 0.00 | 0.00 | 73 | 1014.0 |
| 20260507092752 | 11 | 18 | 3.2 | 6.4 | 0.00 | 0.00 | 0.00 | 74 | 1014.0 |
| 20260507092248 | 11 | 33 | 4.8 | 6.4 | 0.00 | 0.00 | 0.00 | 76 | 1013.9 |
| 20260507091744 | 11 | 35 | 3.2 | 6.4 | 0.00 | 0.00 | 0.00 | 76 | 1014.0 |
| 20260507091241 | 11 | 7 | 3.2 | 3.2 | 0.00 | 0.00 | 0.00 | 76 | 1014.1 |
| 20260507090736 | 11 | 30 | 3.2 | 3.2 | 0.00 | 0.00 | 0.00 | 76 | 1014.1 |
| 20260507090233 | 11 | 341 | 3.2 | 4.8 | 0.00 | 0.00 | 0.00 | 75 | 1014.0 |
| 20260507085730 | 11 | 344 | 3.2 | 4.8 | 0.00 | 0.00 | 0.00 | 75 | 1013.9 |
| 20260507085227 | 11 | 341 | 6.4 | 6.4 | 0.00 | 0.00 | 0.00 | 74 | 1014.2 |
| 20260507084724 | 11 | 342 | 4.8 | 6.4 | 0.00 | 0.00 | 0.00 | 75 | 1013.9 |
| 20260507084221 | 11 | 359 | 4.8 | 6.4 | 0.00 | 0.00 | 0.00 | 75 | 1014.1 |
| 20260507083718 | 11 | 338 | 3.2 | 4.8 | 0.00 | 0.00 | 0.00 | 77 | 1013.9 |
| 20260507083215 | 11 | 351 | 3.2 | 6.4 | 0.00 | 0.00 | 0.00 | 76 | 1013.8 |
| 20260507082711 | 11 | 354 | 3.2 | 4.8 | 0.00 | 0.00 | 0.00 | 76 | 1013.8 |
| 20260507082207 | 11 | 359 | 3.2 | 6.4 | 0.00 | 0.00 | 0.00 | 76 | 1014.0 |
| 20260507081704 | 12 | 355 | 1.6 | 4.8 | 0.00 | 0.00 | 0.00 | 76 | 1014.0 |
| 20260507081159 | 12 | 349 | 6.4 | 6.4 | 0.00 | 0.00 | 0.00 | 76 | 1014.0 |
| 20260507080656 | 12 | 339 | 3.2 | 11.3 | 0.00 | 0.00 | 0.00 | 77 | 1013.9 |
| 20260507080153 | 12 | 14 | 4.8 | 9.7 | 0.00 | 0.00 | 0.00 | 78 | 1013.6 |
| 20260507075648 | 12 | 30 | 3.2 | 4.8 | 0.00 | 0.00 | 0.00 | 78 | 1013.6 |
| 20260507075144 | 12 | 355 | 4.8 | 6.4 | 0.00 | 0.00 | 0.00 | 78 | 1013.6 |
| 20260507074641 | 12 | 5 | 4.8 | 4.8 | 0.00 | 0.00 | 0.00 | 79 | 1013.4 |
| 20260507074139 | 12 | 350 | 4.8 | 4.8 | 0.00 | 0.00 | 0.00 | 79 | 1013.3 |
| 20260507073635 | 12 | 21 | 4.8 | 4.8 | 0.00 | 0.00 | 0.00 | 80 | 1013.6 |
| 20260507073132 | 12 | 354 | 0.0 | 0.0 | 0.00 | 0.00 | 0.00 | 80 | 1013.4 |
| 20260507072630 | 12 | 6 | 1.6 | 4.8 | 0.00 | 0.00 | 0.00 | 80 | 1013.5 |
| 20260507072127 | 12 | 346 | 4.8 | 6.4 | 0.00 | 0.00 | 0.00 | 80 | 1013.2 |
| 20260507071624 | 11 | 9 | 3.2 | 4.8 | 0.00 | 0.00 | 0.00 | 83 | 1013.2 |
| 20260507071120 | 11 | 16 | 3.2 | 4.8 | 0.00 | 0.00 | 0.00 | 84 | 1013.2 |
| 20260507070618 | 11 | 34 | 3.2 | 4.8 | 0.00 | 0.00 | 0.00 | 84 | 1013.3 |
| 20260507070115 | 11 | 23 | 3.2 | 3.2 | 0.00 | 0.00 | 0.00 | 84 | 1013.4 |
| 20260507065611 | 11 | 351 | 1.6 | 3.2 | 0.00 | 0.00 | 0.00 | 85 | 1013.5 |
| 20260507065108 | 11 | 345 | 0.0 | 0.0 | 0.00 | 0.00 | 0.00 | 85 | 1013.5 |
| 20260507064606 | 11 | 339 | 0.0 | 0.0 | 0.00 | 0.00 | 0.00 | 85 | 1013.5 |
| 20260507064104 | 11 | 339 | 0.0 | 0.0 | 0.00 | 0.00 | 0.00 | 84 | 1013.6 |
| 20260507063601 | 11 | 339 | 1.6 | 1.6 | 0.00 | 0.00 | 0.00 | 84 | 1013.8 |
| 20260507063058 | 11 | 349 | 0.0 | 1.6 | 0.00 | 0.00 | 0.00 | 83 | 1013.7 |
| 20260507062554 | 12 | 343 | 1.6 | 3.2 | 0.00 | 0.00 | 0.00 | 83 | 1013.7 |
| 20260507062052 | 12 | 324 | 3.2 | 4.8 | 0.00 | 0.00 | 0.00 | 83 | 1013.6 |
| 20260507061550 | 12 | 4 | 3.2 | 6.4 | 0.00 | 0.00 | 0.00 | 81 | 1013.9 |
| 20260507061048 | 12 | 313 | 3.2 | 4.8 | 0.00 | 0.00 | 0.00 | 81 | 1014.2 |
| 20260507060546 | 12 | 7 | 3.2 | 3.2 | 0.00 | 0.00 | 0.00 | 81 | 1014.1 |
| 20260507060042 | 12 | 319 | 4.8 | 4.8 | 0.00 | 0.00 | 0.00 | 80 | 1014.1 |
| 20260507055537 | 12 | 320 | 3.2 | 3.2 | 0.00 | 0.00 | 0.00 | 80 | 1014.2 |
| 20260507055033 | 12 | 318 | 1.6 | 3.2 | 0.00 | 0.00 | 0.00 | 80 | 1014.1 |
| 20260507054529 | 12 | 341 | 3.2 | 3.2 | 0.00 | 0.00 | 0.00 | 79 | 1014.0 |
| 20260507054027 | 12 | 326 | 3.2 | 3.2 | 0.00 | 0.00 | 0.00 | 80 | 1013.9 |
| 20260507053525 | 12 | 343 | 3.2 | 3.2 | 0.00 | 0.00 | 0.00 | 80 | 1013.9 |
| 20260507053023 | 12 | 326 | 3.2 | 3.2 | 0.00 | 0.00 | 0.00 | 80 | 1013.9 |
| 20260507052520 | 12 | 356 | 1.6 | 4.8 | 0.00 | 0.00 | 0.00 | 80 | 1013.5 |
| 20260507052017 | 12 | 356 | 3.2 | 3.2 | 0.00 | 0.00 | 0.00 | 80 | 1013.6 |
| 20260507051515 | 12 | 13 | 3.2 | 4.8 | 0.00 | 0.00 | 0.00 | 79 | 1013.5 |
| 20260507051011 | 12 | 18 | 3.2 | 4.8 | 0.00 | 0.00 | 0.00 | 79 | 1013.5 |
| 20260507050508 | 12 | 350 | 6.4 | 11.3 | 0.00 | 0.00 | 0.00 | 78 | 1013.6 |
| 20260507050005 | 12 | 341 | 4.8 | 9.7 | 0.00 | 0.00 | 0.00 | 78 | 1013.7 |
| 20260507045501 | 12 | 347 | 4.8 | 4.8 | 0.00 | 0.00 | 0.00 | 79 | 1013.5 |
| 20260507044958 | 12 | 319 | 6.4 | 11.3 | 0.00 | 0.00 | 0.00 | 78 | 1013.5 |
| 20260507044455 | 12 | 352 | 4.8 | 12.9 | 0.00 | 0.00 | 0.00 | 78 | 1013.5 |
| 20260507043951 | 13 | 6 | 4.8 | 9.7 | 0.00 | 0.00 | 0.00 | 79 | 1013.6 |
| 20260507043447 | 12 | 8 | 9.7 | 14.5 | 0.00 | 0.00 | 0.00 | 80 | 1013.4 |
| 20260507042944 | 12 | 342 | 3.2 | 4.8 | 0.00 | 0.00 | 0.00 | 82 | 1013.3 |
| 20260507042441 | 12 | 8 | 3.2 | 6.4 | 0.00 | 0.00 | 0.00 | 81 | 1012.9 |
| 20260507041936 | 12 | 325 | 4.8 | 6.4 | 0.00 | 0.00 | 0.00 | 81 | 1013.3 |
| 20260507041433 | 13 | 356 | 6.4 | 6.4 | 0.00 | 0.00 | 0.00 | 81 | 1013.3 |
| 20260507040931 | 13 | 0 | 8.0 | 11.3 | 0.00 | 0.00 | 0.00 | 81 | 1013.4 |
| 20260507040431 | 13 | 339 | 6.4 | 12.9 | 0.00 | 0.00 | 0.00 | 81 | 1013.4 |
| 20260507035927 | 13 | 319 | 9.7 | 11.3 | 0.00 | 0.30 | 0.30 | 81 | 1013.7 |
| 20260507035424 | 13 | 321 | 6.4 | 11.3 | 0.00 | 0.30 | 0.30 | 82 | 1013.6 |
| 20260507034921 | 13 | 31 | 14.5 | 16.1 | 0.00 | 0.30 | 0.30 | 82 | 1013.4 |
| 20260507034418 | 13 | 0 | 6.4 | 12.9 | 0.00 | 0.30 | 0.30 | 83 | 1013.2 |
| 20260507033916 | 13 | 11 | 9.7 | 14.5 | 0.00 | 0.30 | 0.30 | 83 | 1013.1 |
| 20260507033414 | 13 | 354 | 6.4 | 14.5 | 0.00 | 0.30 | 0.30 | 83 | 1013.4 |
| 20260507032911 | 13 | 351 | 8.0 | 11.3 | 0.00 | 0.30 | 0.30 | 82 | 1013.3 |
| 20260507032407 | 13 | 7 | 4.8 | 11.3 | 0.00 | 0.30 | 0.30 | 82 | 1013.3 |
| 20260507031903 | 13 | 344 | 9.7 | 12.9 | 0.00 | 0.30 | 0.30 | 81 | 1013.5 |
| 20260507031400 | 13 | 348 | 8.0 | 9.7 | 0.00 | 0.30 | 0.30 | 82 | 1013.4 |
| 20260507030857 | 13 | 348 | 8.0 | 12.9 | 0.00 | 0.30 | 0.30 | 82 | 1013.1 |
| 20260507030354 | 14 | 318 | 4.8 | 4.8 | 0.00 | 0.30 | 0.30 | 80 | 1013.4 |
| 20260507025851 | 14 | 296 | 4.8 | 6.4 | 0.00 | 0.30 | 0.30 | 80 | 1013.5 |
| 20260507025349 | 14 | 334 | 8.0 | 11.3 | 0.00 | 0.30 | 0.30 | 80 | 1013.3 |
| 20260507024846 | 14 | 332 | 8.0 | 11.3 | 0.00 | 0.30 | 0.30 | 80 | 1013.1 |
| 20260507024343 | 14 | 359 | 8.0 | 12.9 | 0.00 | 0.30 | 0.30 | 80 | 1013.0 |
| 20260507023839 | 14 | 334 | 8.0 | 11.3 | 0.00 | 0.30 | 0.30 | 80 | 1012.8 |
| 20260507023336 | 14 | 336 | 14.5 | 17.7 | 0.00 | 0.30 | 0.30 | 80 | 1013.0 |
| 20260507022833 | 14 | 4 | 8.0 | 14.5 | 0.00 | 0.30 | 0.30 | 80 | 1012.8 |
| 20260507022330 | 15 | 342 | 6.4 | 9.7 | 0.00 | 0.30 | 0.30 | 79 | 1013.1 |
| 20260507021825 | 15 | 9 | 4.8 | 12.9 | 0.00 | 0.30 | 0.30 | 79 | 1012.9 |
| 20260507021321 | 15 | 2 | 8.0 | 11.3 | 0.00 | 0.30 | 0.30 | 79 | 1012.5 |
| 20260507020819 | 15 | 29 | 8.0 | 11.3 | 0.00 | 0.30 | 0.30 | 79 | 1012.5 |
| 20260507020315 | 15 | 342 | 4.8 | 9.7 | 0.00 | 0.30 | 0.30 | 80 | 1012.9 |
| 20260507015813 | 15 | 332 | 4.8 | 6.4 | 0.00 | 0.30 | 0.30 | 79 | 1012.6 |
| 20260507015310 | 15 | 345 | 1.6 | 6.4 | 0.00 | 0.30 | 0.30 | 80 | 1012.5 |
| 20260507014807 | 15 | 350 | 1.6 | 4.8 | 0.00 | 0.30 | 0.30 | 80 | 1012.5 |
| 20260507014304 | 15 | 10 | 4.8 | 6.4 | 0.00 | 0.30 | 0.30 | 79 | 1012.7 |
| 20260507013800 | 15 | 342 | 1.6 | 11.3 | 0.00 | 0.30 | 0.30 | 79 | 1012.6 |
| 20260507013257 | 15 | 332 | 3.2 | 9.7 | 0.00 | 0.30 | 0.30 | 79 | 1012.9 |
| 20260507012755 | 15 | 332 | 6.4 | 9.7 | 0.00 | 0.30 | 0.30 | 80 | 1012.3 |
| 20260507012250 | 15 | 303 | 9.7 | 11.3 | 0.00 | 0.30 | 0.30 | 79 | 1012.0 |
| 20260507011748 | 16 | 304 | 6.4 | 11.3 | 0.00 | 0.30 | 0.30 | 79 | 1012.1 |
| 20260507011244 | 15 | 326 | 4.8 | 11.3 | 0.00 | 0.30 | 0.30 | 78 | 1012.2 |
| 20260507010744 | 15 | 323 | 4.8 | 6.4 | 0.00 | 0.30 | 0.30 | 79 | 1012.1 |
| 20260507010240 | 15 | 23 | 4.8 | 6.4 | 0.00 | 0.30 | 0.30 | 80 | 1011.9 |
| 20260507005738 | 16 | 354 | 4.8 | 6.4 | 0.00 | 0.30 | 0.30 | 81 | 1012.0 |
| 20260507005234 | 16 | 18 | 1.6 | 3.2 | 0.00 | 0.30 | 0.30 | 81 | 1012.4 |
| 20260507004731 | 16 | 315 | 1.6 | 4.8 | 0.00 | 0.30 | 0.30 | 81 | 1012.5 |
| 20260507004229 | 16 | 315 | 1.6 | 4.8 | 0.00 | 0.30 | 0.30 | 81 | 1012.5 |
| 20260507003724 | 16 | 310 | 4.8 | 4.8 | 0.00 | 0.30 | 0.30 | 82 | 1012.5 |
| 20260507003220 | 16 | 293 | 3.2 | 6.4 | 0.00 | 0.30 | 0.30 | 82 | 1012.4 |
| 20260507002716 | 16 | 307 | 4.8 | 6.4 | 0.00 | 0.30 | 0.30 | 81 | 1012.1 |
| 20260507002212 | 16 | 339 | 4.8 | 11.3 | 0.00 | 0.30 | 0.30 | 79 | 1012.0 |
| 20260507001709 | 16 | 266 | 6.4 | 11.3 | 0.00 | 0.30 | 0.30 | 78 | 1012.1 |
| 20260507001206 | 16 | 317 | 8.0 | 9.7 | 0.00 | 0.30 | 0.30 | 78 | 1011.9 |
| 20260507000702 | 16 | 329 | 4.8 | 12.9 | 0.00 | 0.30 | 0.30 | 78 | 1012.2 |
| 20260507000158 | 17 | 315 | 3.2 | 6.4 | 0.00 | 0.30 | 0.30 | 80 | 1012.0 |
| 20260506235655 | 17 | 296 | 9.7 | 12.9 | 0.00 | 0.30 | 0.30 | 79 | 1011.7 |
| 20260506235151 | 17 | 323 | 4.8 | 16.1 | 0.00 | 0.30 | 0.30 | 82 | 1011.9 |
| 20260506234648 | 17 | 322 | 4.8 | 9.7 | 0.00 | 0.30 | 0.30 | 82 | 1011.7 |
| 20260506234145 | 17 | 269 | 3.2 | 4.8 | 0.00 | 0.30 | 0.30 | 81 | 1011.3 |
| 20260506233642 | 17 | 282 | 3.2 | 6.4 | 0.00 | 0.30 | 0.30 | 81 | 1011.4 |
| 20260506233139 | 17 | 264 | 3.2 | 4.8 | 0.00 | 0.30 | 0.30 | 83 | 1011.3 |
| 20260506232635 | 17 | 290 | 3.2 | 3.2 | 0.00 | 0.30 | 0.30 | 83 | 1011.1 |
| 20260506232131 | 17 | 327 | 3.2 | 6.4 | 0.00 | 0.30 | 0.30 | 82 | 1011.0 |
| 20260506231628 | 17 | 299 | 6.4 | 6.4 | 0.00 | 0.30 | 0.30 | 80 | 1010.8 |
| 20260506231126 | 17 | 321 | 3.2 | 6.4 | 0.00 | 0.30 | 0.30 | 81 | 1010.9 |
| 20260506230623 | 18 | 305 | 6.4 | 14.5 | 0.00 | 0.30 | 0.30 | 81 | 1010.8 |
| 20260506230120 | 18 | 334 | 6.4 | 9.7 | 0.00 | 0.30 | 0.30 | 82 | 1010.9 |
| 20260506225616 | 18 | 17 | 3.2 | 6.4 | 0.00 | 0.30 | 0.30 | 82 | 1010.3 |
| 20260506225113 | 18 | 307 | 4.8 | 9.7 | 0.00 | 0.30 | 0.30 | 82 | 1010.8 |
| 20260506224610 | 19 | 345 | 4.8 | 6.4 | 0.00 | 0.30 | 0.30 | 82 | 1010.6 |
| 20260506224106 | 18 | 328 | 1.6 | 6.4 | 0.00 | 0.30 | 0.30 | 82 | 1010.7 |
| 20260506223602 | 18 | 339 | 3.2 | 9.7 | 0.00 | 0.30 | 0.30 | 81 | 1010.5 |
| 20260506223059 | 18 | 335 | 3.2 | 6.4 | 0.00 | 0.30 | 0.30 | 82 | 1010.8 |
| 20260506222556 | 18 | 341 | 4.8 | 9.7 | 0.00 | 0.30 | 0.30 | 82 | 1010.6 |
| 20260506222052 | 19 | 19 | 8.0 | 11.3 | 0.00 | 0.30 | 0.30 | 81 | 1010.3 |
| 20260506221550 | 19 | 335 | 3.2 | 6.4 | 0.00 | 0.30 | 0.30 | 83 | 1010.1 |
| 20260506221048 | 19 | 3 | 8.0 | 11.3 | 0.00 | 0.30 | 0.30 | 82 | 1010.3 |
| 20260506220543 | 19 | 319 | 6.4 | 6.4 | 0.00 | 0.30 | 0.30 | 81 | 1010.2 |
| 20260506220039 | 19 | 338 | 4.8 | 11.3 | 0.00 | 0.30 | 0.30 | 80 | 1010.0 |
| 20260506215536 | 20 | 313 | 8.0 | 11.3 | 0.00 | 0.30 | 0.30 | 80 | 1009.8 |
| 20260506215032 | 20 | 318 | 12.9 | 16.1 | 0.00 | 0.30 | 0.30 | 79 | 1009.9 |
| 20260506214529 | 20 | 6 | 6.4 | 14.5 | 0.00 | 0.30 | 0.30 | 82 | 1009.7 |
| 20260506214026 | 20 | 26 | 1.6 | 3.2 | 0.00 | 0.30 | 0.30 | 82 | 1009.7 |
| 20260506213524 | 20 | 90 | 0.0 | 0.0 | 0.00 | 0.30 | 0.30 | 82 | 1009.7 |
| 20260506213021 | 20 | 96 | 0.0 | 0.0 | 0.00 | 0.30 | 0.30 | 82 | 1009.8 |
| 20260506212518 | 20 | 154 | 1.6 | 3.2 | 0.00 | 0.30 | 0.30 | 82 | 1009.6 |
| 20260506212013 | 20 | 94 | 0.0 | 0.0 | 0.00 | 0.30 | 0.30 | 82 | 1009.6 |
| 20260506211509 | 20 | 79 | 0.0 | 0.0 | 0.00 | 0.30 | 0.30 | 81 | 1009.5 |
| 20260506211006 | 20 | 67 | 1.6 | 3.2 | 0.00 | 0.30 | 0.30 | 82 | 1009.5 |
| 20260506210502 | 20 | 82 | 3.2 | 4.8 | 0.00 | 0.30 | 0.30 | 83 | 1009.4 |
| 20260506205959 | 20 | 92 | 1.6 | 3.2 | 0.00 | 0.30 | 0.30 | 83 | 1009.2 |
| 20260506205455 | 20 | 127 | 1.6 | 4.8 | 0.00 | 0.30 | 0.30 | 84 | 1009.1 |
| 20260506204951 | 20 | 81 | 4.8 | 6.4 | 0.00 | 0.30 | 0.30 | 83 | 1009.1 |
| 20260506204450 | 20 | 116 | 3.2 | 4.8 | 0.00 | 0.30 | 0.30 | 83 | 1009.1 |
| 20260506203947 | 20 | 119 | 0.0 | 3.2 | 0.00 | 0.30 | 0.30 | 84 | 1009.0 |
| 20260506203444 | 20 | 85 | 1.6 | 4.8 | 0.00 | 0.30 | 0.30 | 85 | 1009.0 |
| 20260506202941 | 19 | 105 | 0.0 | 1.6 | 0.00 | 0.30 | 0.30 | 86 | 1009.0 |
| 20260506202438 | 19 | 152 | 0.0 | 3.2 | 0.00 | 0.30 | 0.30 | 86 | 1009.2 |
| 20260506201934 | 19 | 165 | 0.0 | 1.6 | 0.00 | 0.30 | 0.30 | 87 | 1009.2 |
| 20260506201432 | 19 | 129 | 1.6 | 3.2 | 0.00 | 0.30 | 0.30 | 86 | 1009.2 |
| 20260506200928 | 19 | 79 | 0.0 | 3.2 | 0.00 | 0.30 | 0.30 | 86 | 1009.3 |
| 20260506200425 | 19 | 67 | 1.6 | 3.2 | 0.00 | 0.30 | 0.30 | 87 | 1009.0 |
| 20260506195921 | 19 | 69 | 3.2 | 3.2 | 0.00 | 0.30 | 0.30 | 86 | 1009.1 |
| 20260506195418 | 19 | 49 | 3.2 | 3.2 | 0.00 | 0.30 | 0.30 | 87 | 1009.1 |
| 20260506194915 | 19 | 29 | 1.6 | 3.2 | 0.00 | 0.30 | 0.30 | 87 | 1009.3 |
| 20260506194412 | 18 | 33 | 3.2 | 6.4 | 0.00 | 0.30 | 0.30 | 86 | 1009.2 |
| 20260506193909 | 19 | 17 | 8.0 | 9.7 | 0.00 | 0.30 | 0.30 | 85 | 1009.2 |
| 20260506193406 | 19 | 12 | 4.8 | 9.7 | 0.00 | 0.30 | 0.30 | 85 | 1009.1 |
| 20260506192902 | 19 | 8 | 4.8 | 9.7 | 0.00 | 0.30 | 0.30 | 85 | 1009.1 |